Vunisea, Fiji
Current Conditions -  °F | °C
As of 4:00 PM on Thursday 27 Nov 2014 (Local Time) from NFNA Reporting Station
Broken Clouds Broken Clouds  
Wind Chill: 82°   Ceiling: 2200
Heat Index: 87°   Visibility: 6mi
Dew Point: 72°   Wind: 10mph
Humidity: 70%   Direction: 120°ESE
Pressure: 29.74"   Gusts: NA
Location:  19.05°S, 178.17°E
Report Text: NFNA 270400Z 12009KT 9999 BKN022 SCT300 28/22 Q1007
Loading
Personal Weather Stations






























Interactive Weather Map New forecast layout! Learn more

10-Day Weather Forecast

Advertisements
Track Severe Weather on mobile